Hartley, South Dakota
Current Conditions -  °F | °C
As of 1:58 PM on Tuesday 25 Nov 2014 (Local Time) from KRCA Reporting Station
Clear Clear  
Wind Chill: 26°   Ceiling: Unl
Heat Index: 37°   Visibility: 10mi
Dew Point: 31°   Wind: 24mph
Humidity: 77%   Direction: 320°NW
Pressure: 29.75"   Gusts: 29mph
Location:  44.4194°N, 101.806°W
Report Text: KRCA 252058Z 32021G25KT 10SM CLR 03/M01 A2975 RMK AO2A PK WND 32026/42 RAE2004DZB2004E2008 SLP105 P0000 60000 T00301006 55006 $
Loading
Personal Weather Stations






























Interactive Weather Map New forecast layout! Learn more

10-Day Weather Forecast

Advertisements
Track Severe Weather on mobile